Time;durP1;ratioP1;P1;durP2;ratioP2;P2;SDS_P1;SDS_P2;PMS_P1;PMS_P2;Temp;Humidity;BMP_temperature;BMP_pressure;BME280_temperature;BME280_humidity;BME280_pressure;Samples;Min_cycle;Max_cycle;Signal;HPM_P1;HPM_P2
2022/05/27 00:02:23;;;;;;;9.10;6.30;;;;;;;13.09;100.00;100659.63;4997054;28;20040;-83
2022/05/27 00:04:50;;;;;;;8.88;6.20;;;;;;;13.10;100.00;100656.91;5016276;28;20688;-81
2022/05/27 00:07:20;;;;;;;7.65;6.00;;;;;;;13.08;100.00;100655.22;5026529;28;20041;-80
2022/05/27 00:09:46;;;;;;;7.70;6.90;;;;;;;13.13;100.00;100651.53;5016192;28;20102;-81
2022/05/27 00:12:13;;;;;;;8.05;6.50;;;;;;;13.07;100.00;100650.84;4994497;28;20044;-82
2022/05/27 00:14:40;;;;;;;6.80;6.20;;;;;;;13.03;100.00;100643.88;5024104;28;20036;-81
2022/05/27 00:17:06;;;;;;;9.15;6.32;;;;;;;13.00;100.00;100643.97;5012105;28;20488;-81
2022/05/27 00:19:33;;;;;;;8.00;6.20;;;;;;;13.02;100.00;100642.16;4995374;28;20044;-80
2022/05/27 00:22:00;;;;;;;8.20;7.10;;;;;;;13.04;100.00;100630.59;5014041;28;20071;-80
2022/05/27 00:24:28;;;;;;;9.10;6.68;;;;;;;12.98;100.00;100621.94;5027905;28;20044;-81
2022/05/27 00:26:58;;;;;;;9.10;7.35;;;;;;;12.96;100.00;100627.31;5013639;28;20445;-81
2022/05/27 00:29:27;;;;;;;10.05;7.75;;;;;;;12.94;100.00;100624.69;5028361;28;20044;-81
2022/05/27 00:32:14;;;;;;;9.07;7.40;;;;;;;12.96;100.00;100620.22;5035535;28;20095;-81
2022/05/27 00:34:40;;;;;;;8.40;6.80;;;;;;;12.93;100.00;100624.72;5013399;28;20423;-80
2022/05/27 00:37:07;;;;;;;9.00;8.07;;;;;;;12.93;100.00;100611.47;5013602;28;20044;-81
2022/05/27 00:39:38;;;;;;;11.50;8.30;;;;;;;12.94;100.00;100608.78;5032793;28;20036;-80
2022/05/27 00:42:05;;;;;;;13.15;7.78;;;;;;;13.00;100.00;100609.50;5011435;28;20090;-80
2022/05/27 00:44:32;;;;;;;10.98;8.15;;;;;;;12.92;100.00;100607.09;4994057;28;20044;-81
2022/05/27 00:47:05;;;;;;;9.50;8.23;;;;;;;12.94;100.00;100603.47;5027952;28;20418;-81
2022/05/27 00:49:35;;;;;;;11.13;8.93;;;;;;;12.96;100.00;100609.63;5026978;28;20041;-82
2022/05/27 00:52:06;;;;;;;10.65;8.45;;;;;;;12.92;100.00;100601.78;5026428;28;20059;-81
2022/05/27 00:54:36;;;;;;;9.88;8.88;;;;;;;12.96;100.00;100601.66;5019473;28;20507;-81
2022/05/27 00:57:36;;;;;;;11.27;9.10;;;;;;;12.98;100.00;100592.78;5030322;28;20045;-83
2022/05/27 01:00:07;;;;;;;10.52;8.93;;;;;;;12.95;100.00;100601.72;4998557;28;20405;-81
2022/05/27 01:02:35;;;;;;;11.90;9.55;;;;;;;12.93;100.00;100601.72;5003948;28;20041;-82
2022/05/27 01:05:04;;;;;;;12.90;10.55;;;;;;;12.93;100.00;100599.09;5013596;28;20049;-80
2022/05/27 01:07:31;;;;;;;12.35;9.80;;;;;;;12.98;100.00;100587.47;5026106;28;20048;-81
2022/05/27 01:09:58;;;;;;;14.55;10.32;;;;;;;12.99;100.00;100594.50;5013778;28;20041;-82
2022/05/27 01:12:41;;;;;;;13.25;9.77;;;;;;;12.97;100.00;100583.97;5029940;28;20041;-80
2022/05/27 01:15:27;;;;;;;14.60;10.70;;;;;;;12.94;100.00;100584.91;5034631;28;20036;-81
2022/05/27 01:18:05;;;;;;;14.30;10.68;;;;;;;12.92;100.00;100588.53;5020101;28;20033;-80
2022/05/27 01:20:40;;;;;;;14.23;10.60;;;;;;;13.00;100.00;100588.28;5029727;28;20064;-80
2022/05/27 01:23:19;;;;;;;11.90;9.77;;;;;;;12.96;100.00;100584.88;5046540;28;20042;-80
2022/05/27 01:26:10;;;;;;;12.93;9.80;;;;;;;12.92;100.00;100580.56;5099159;23;20040;-81
2022/05/27 01:28:49;;;;;;;12.57;10.90;;;;;;;12.95;100.00;100577.84;5014437;28;20048;-79
2022/05/27 01:31:22;;;;;;;11.98;9.98;;;;;;;12.94;100.00;100570.78;5159910;23;20065;-80
2022/05/27 01:34:08;;;;;;;12.02;10.15;;;;;;;13.00;100.00;100565.28;5008726;28;20477;-79
2022/05/27 01:36:41;;;;;;;11.20;9.60;;;;;;;12.98;100.00;100563.63;5031115;28;20044;-79
2022/05/27 01:39:17;;;;;;;13.45;10.57;;;;;;;12.99;100.00;100549.44;5044867;28;20079;-81
2022/05/27 01:41:59;;;;;;;13.30;10.75;;;;;;;13.01;100.00;100550.25;5034807;28;20040;-82
2022/05/27 01:44:29;;;;;;;15.20;10.85;;;;;;;12.96;100.00;100553.94;5037981;28;20036;-81
2022/05/27 01:47:02;;;;;;;14.50;10.73;;;;;;;12.99;100.00;100549.44;5031942;28;20536;-81
2022/05/27 01:49:43;;;;;;;14.82;11.10;;;;;;;13.02;100.00;100547.53;4999107;28;20306;-82
2022/05/27 01:52:30;;;;;;;12.55;10.55;;;;;;;12.99;100.00;100554.72;5030256;28;20518;-81
2022/05/27 01:55:08;;;;;;;14.65;10.80;;;;;;;13.01;100.00;100560.84;5028156;28;20080;-82
2022/05/27 01:57:35;;;;;;;13.85;10.30;;;;;;;13.04;100.00;100551.03;5006808;28;20045;-80
2022/05/27 02:00:10;;;;;;;15.15;12.13;;;;;;;13.07;100.00;100555.34;5035466;28;20045;-81
2022/05/27 02:02:47;;;;;;;13.18;10.93;;;;;;;13.08;100.00;100551.78;4999074;28;20045;-81
2022/05/27 02:05:26;;;;;;;15.07;11.02;;;;;;;13.07;100.00;100542.09;5029149;28;20041;-80
2022/05/27 02:07:59;;;;;;;12.90;10.60;;;;;;;13.09;100.00;100545.56;5028288;28;20037;-80
2022/05/27 02:10:31;;;;;;;13.77;9.90;;;;;;;13.04;100.00;100540.44;5027045;28;20033;-80
2022/05/27 02:13:04;;;;;;;15.35;10.98;;;;;;;13.02;100.00;100539.59;5016660;28;20379;-80
2022/05/27 02:15:45;;;;;;;14.68;10.73;;;;;;;13.08;100.00;100550.00;5030837;28;20033;-81
2022/05/27 02:18:26;;;;;;;13.43;10.32;;;;;;;13.08;100.00;100549.13;5013558;28;20045;-80
2022/05/27 02:20:58;;;;;;;15.70;11.02;;;;;;;13.11;100.00;100552.53;5029245;28;20128;-80
2022/05/27 02:23:29;;;;;;;13.18;10.23;;;;;;;13.10;100.00;100566.72;5049255;28;20040;-80
2022/05/27 02:25:57;;;;;;;13.73;10.27;;;;;;;13.10;100.00;100569.38;5014702;28;20127;-80
2022/05/27 02:28:30;;;;;;;13.38;9.95;;;;;;;13.09;100.00;100553.53;5009149;28;20045;-80
2022/05/27 02:31:05;;;;;;;12.98;10.13;;;;;;;13.07;100.00;100552.72;5006288;28;20064;-80
2022/05/27 02:36:23;;;;;;;13.63;10.18;;;;;;;13.09;100.00;100554.38;5040057;28;20517;-80
2022/05/27 02:38:50;;;;;;;13.73;10.38;;;;;;;13.06;100.00;100561.59;5009942;28;20673;-79
2022/05/27 02:41:24;;;;;;;13.77;10.52;;;;;;;13.10;100.00;100549.94;5006763;28;20041;-79
2022/05/27 02:43:55;;;;;;;11.45;9.27;;;;;;;13.09;100.00;100550.88;5007280;28;20107;-80
2022/05/27 02:46:28;;;;;;;11.60;9.30;;;;;;;13.04;100.00;100550.16;5029595;28;20056;-81
2022/05/27 02:49:13;;;;;;;11.38;8.43;;;;;;;13.02;100.00;100558.16;5002845;28;20045;-80
2022/05/27 02:51:46;;;;;;;13.30;9.63;;;;;;;13.05;100.00;100563.38;5029833;28;20048;-80
2022/05/27 02:54:30;;;;;;;13.00;9.43;;;;;;;13.03;100.00;100545.75;5008793;28;20045;-80
2022/05/27 02:57:05;;;;;;;13.20;9.35;;;;;;;13.05;100.00;100544.81;5029015;28;20087;-80
2022/05/27 02:59:34;;;;;;;10.63;8.45;;;;;;;13.02;100.00;100551.97;5013218;28;20044;-80
2022/05/27 03:02:10;;;;;;;12.63;9.27;;;;;;;13.04;100.00;100550.16;5026209;28;21122;-80
2022/05/27 03:04:39;;;;;;;12.95;8.30;;;;;;;13.04;100.00;100542.22;5025882;28;20117;-80
2022/05/27 03:07:20;;;;;;;9.30;7.28;;;;;;;13.05;100.00;100534.19;5011566;28;20037;-81
2022/05/27 03:09:52;;;;;;;9.43;6.95;;;;;;;13.03;100.00;100540.44;5031427;28;20060;-80
2022/05/27 03:12:38;;;;;;;9.40;6.38;;;;;;;13.01;100.00;100539.63;5024476;28;20129;-81
2022/05/27 03:15:26;;;;;;;13.50;8.13;;;;;;;13.02;100.00;100558.16;5023516;28;20041;-80
2022/05/27 03:18:09;;;;;;;9.27;7.18;;;;;;;12.97;100.00;100562.75;5025411;28;20448;-80
2022/05/27 03:20:50;;;;;;;10.43;7.22;;;;;;;12.98;100.00;100556.53;5030385;28;20510;-81
2022/05/27 03:23:26;;;;;;;10.50;7.35;;;;;;;13.00;100.00;100554.69;5003214;28;20041;-80
2022/05/27 03:26:20;;;;;;;9.27;7.00;;;;;;;13.03;100.00;100559.91;5015941;28;20042;-80
2022/05/27 03:28:56;;;;;;;9.05;7.15;;;;;;;13.00;100.00;100546.72;5022888;28;20076;-80
2022/05/27 03:31:28;;;;;;;8.77;6.68;;;;;;;12.99;100.00;100552.09;5028910;28;20037;-80
2022/05/27 03:34:13;;;;;;;8.05;6.50;;;;;;;12.95;100.00;100551.31;5024331;28;20040;-80
2022/05/27 03:36:46;;;;;;;10.40;6.45;;;;;;;12.95;100.00;100538.94;5028545;28;20041;-79
2022/05/27 03:39:18;;;;;;;9.60;6.72;;;;;;;13.00;100.00;100554.69;5010034;28;20040;-80
2022/05/27 03:42:05;;;;;;;9.02;6.90;;;;;;;12.97;100.00;100552.13;5026294;28;20045;-79
2022/05/27 03:44:32;;;;;;;7.22;6.22;;;;;;;12.96;100.00;100548.63;5009292;28;20119;-80
2022/05/27 03:46:59;;;;;;;8.52;6.15;;;;;;;12.94;100.00;100539.81;5009761;28;20052;-80
2022/05/27 03:49:27;;;;;;;8.48;6.57;;;;;;;12.96;100.00;100538.00;4995775;28;20032;-80
2022/05/27 03:52:27;;;;;;;7.45;5.47;;;;;;;12.93;100.00;100542.53;5026184;28;20044;-80
2022/05/27 03:54:54;;;;;;;7.65;5.85;;;;;;;13.02;100.00;100538.72;5034458;28;20079;-79
2022/05/27 03:57:21;;;;;;;7.57;5.88;;;;;;;13.01;100.00;100527.25;5004292;28;20040;-80
2022/05/27 03:59:48;;;;;;;10.30;6.25;;;;;;;13.04;100.00;100531.59;5019042;28;20481;-79
2022/05/27 04:02:15;;;;;;;8.35;6.78;;;;;;;13.05;100.00;100534.19;5032199;28;20682;-80
2022/05/27 04:04:41;;;;;;;8.43;5.80;;;;;;;13.03;100.00;100540.44;5015343;28;20045;-79
2022/05/27 04:07:12;;;;;;;9.88;6.47;;;;;;;13.06;100.00;100541.22;5021444;28;20036;-81
2022/05/27 04:09:39;;;;;;;7.43;5.68;;;;;;;13.06;100.00;100527.97;5038562;28;20072;-80
2022/05/27 04:12:06;;;;;;;6.28;5.65;;;;;;;13.10;100.00;100520.75;5030241;28;20569;-80
2022/05/27 04:14:32;;;;;;;7.47;5.47;;;;;;;13.04;100.00;100528.94;5029563;28;20059;-79
2022/05/27 04:19:45;;;;;;;8.18;5.07;;;;;;;13.13;100.00;100523.34;5032892;28;20409;-80
2022/05/27 04:22:12;;;;;;;11.50;5.93;;;;;;;13.17;100.00;100536.44;5036901;28;20060;-81
2022/05/27 04:24:38;;;;;;;6.80;5.18;;;;;;;13.10;100.00;100542.84;5030048;28;20060;-80
2022/05/27 04:27:09;;;;;;;7.65;5.53;;;;;;;13.13;100.00;100555.16;5023718;28;20056;-80
2022/05/27 04:29:45;;;;;;;6.90;5.38;;;;;;;13.11;100.00;100526.00;5004738;28;20072;-80
2022/05/27 04:32:12;;;;;;;5.55;4.80;;;;;;;13.13;100.00;100545.41;5031545;28;20067;-80
2022/05/27 04:34:40;;;;;;;8.55;5.20;;;;;;;13.16;100.00;100547.09;5012724;28;20110;-80
2022/05/27 04:37:08;;;;;;;7.75;4.90;;;;;;;13.14;100.00;100540.97;5035253;28;20040;-80
2022/05/27 04:39:35;;;;;;;5.97;4.95;;;;;;;13.13;100.00;100541.91;5021442;28;20033;-80
2022/05/27 04:42:02;;;;;;;7.72;5.55;;;;;;;13.21;100.00;100527.50;5015343;28;20040;-79
2022/05/27 04:44:29;;;;;;;7.70;5.18;;;;;;;13.24;100.00;100511.47;5021317;28;20041;-80
2022/05/27 04:46:56;;;;;;;6.10;4.95;;;;;;;13.27;100.00;100539.69;5012045;28;20041;-79
2022/05/27 04:52:08;;;;;;;11.45;5.55;;;;;;;13.25;100.00;100525.59;5033463;28;20037;-80
2022/05/27 04:54:35;;;;;;;7.57;5.15;;;;;;;13.32;100.00;100524.47;5012966;28;20029;-80
2022/05/27 04:57:02;;;;;;;6.78;4.82;;;;;;;13.32;100.00;100536.88;5032055;28;20051;-79
2022/05/27 04:59:29;;;;;;;5.43;4.50;;;;;;;13.28;100.00;100546.72;4995013;28;20036;-80
2022/05/27 05:01:55;;;;;;;7.20;5.50;;;;;;;13.27;100.00;100550.28;5008610;28;20033;-80
2022/05/27 05:04:22;;;;;;;6.95;4.70;;;;;;;13.31;100.00;100554.59;5023244;28;20052;-81
2022/05/27 05:06:52;;;;;;;9.18;5.60;;;;;;;13.33;100.00;100541.25;5013750;28;20527;-79
2022/05/27 05:09:18;;;;;;;9.40;4.50;;;;;;;13.32;100.00;100551.00;5019280;28;20083;-80
2022/05/27 05:11:45;;;;;;;7.85;4.32;;;;;;;13.36;100.00;100551.75;5023970;28;20041;-80
2022/05/27 05:14:11;;;;;;;6.40;4.70;;;;;;;13.37;100.00;100549.09;5024612;28;20048;-81
2022/05/27 05:16:38;;;;;;;6.70;4.53;;;;;;;13.42;100.00;100568.34;5046678;28;20383;-80
2022/05/27 05:19:05;;;;;;;8.32;4.97;;;;;;;13.38;100.00;100548.16;5016354;28;20103;-79
2022/05/27 05:21:31;;;;;;;7.32;4.68;;;;;;;13.33;100.00;100546.56;4999769;28;20040;-80
2022/05/27 05:23:58;;;;;;;9.57;4.38;;;;;;;13.34;100.00;100527.94;5010371;28;20051;-80
2022/05/27 05:26:25;;;;;;;4.30;3.90;;;;;;;13.38;100.00;100528.72;5013091;28;20782;-80
2022/05/27 05:28:51;;;;;;;7.07;4.88;;;;;;;13.46;100.00;100531.97;5008653;28;20049;-80
2022/05/27 05:31:18;;;;;;;6.53;3.85;;;;;;;13.53;100.00;100550.28;5008134;28;20063;-79
2022/05/27 05:33:46;;;;;;;5.88;4.13;;;;;;;13.70;100.00;100548.81;5016266;28;20045;-79
2022/05/27 05:36:12;;;;;;;5.70;3.97;;;;;;;13.85;100.00;100540.31;5010095;28;20038;-79
2022/05/27 05:38:39;;;;;;;4.22;3.63;;;;;;;13.93;100.00;100548.00;5021372;28;20045;-80
2022/05/27 05:41:06;;;;;;;7.50;4.30;;;;;;;14.03;100.00;100560.03;5024101;28;20060;-79
2022/05/27 05:43:33;;;;;;;8.80;3.67;;;;;;;14.09;100.00;100557.16;5014146;28;20082;-80
2022/05/27 05:46:00;;;;;;;6.90;3.65;;;;;;;14.03;100.00;100550.28;5022833;28;20046;-79
2022/05/27 05:48:27;;;;;;;5.72;3.42;;;;;;;14.18;100.00;100545.31;5010725;28;20164;-79
2022/05/27 05:50:54;;;;;;;4.53;3.72;;;;;;;14.22;100.00;100542.50;5024542;28;20048;-79
2022/05/27 05:53:21;;;;;;;5.78;3.25;;;;;;;14.19;100.00;100542.59;5004836;28;20474;-79
2022/05/27 05:55:47;;;;;;;3.70;2.85;;;;;;;14.13;100.00;100552.63;5028141;28;21543;-80
2022/05/27 05:58:14;;;;;;;5.05;3.08;;;;;;;14.22;100.00;100539.00;5007855;28;20060;-80
2022/05/27 06:00:41;;;;;;;5.72;2.88;;;;;;;14.28;100.00;100544.91;5043789;28;20041;-79
2022/05/27 06:03:07;;;;;;;5.38;3.03;;;;;;;14.24;100.00;100543.31;5022190;28;20038;-80
2022/05/27 06:05:34;;;;;;;4.35;3.22;;;;;;;14.23;100.00;100540.72;5030530;28;20041;-79
2022/05/27 06:08:01;;;;;;;4.97;3.20;;;;;;;14.27;100.00;100532.56;5027564;28;20094;-80
2022/05/27 06:10:28;;;;;;;4.22;2.60;;;;;;;14.39;100.00;100533.03;5026015;28;20051;-79
2022/05/27 06:12:58;;;;;;;4.85;2.80;;;;;;;14.48;98.62;100524.75;5028506;28;20119;-79
2022/05/27 06:19:44;;;;;;;3.25;2.47;;;;;;;14.66;91.27;100532.00;5022411;28;20052;-79
2022/05/27 06:23:45;;;;;;;;;;;;;;;;;;;;;
2022/05/27 06:27:20;;;;;;;4.40;2.42;;;;;;;15.40;79.48;100524.53;5036493;28;20056;-79
2022/05/27 06:40:36;;;;;;;5.05;2.45;;;;;;;16.77;66.16;100521.00;4978754;28;20042;-80
2022/05/27 06:44:03;;;;;;;;;;;;;;;;;;;;;
2022/05/27 06:47:22;;;;;;;3.72;2.20;;;;;;;17.17;62.21;100524.41;5014824;28;20132;-79
2022/05/27 06:54:12;;;;;;;4.18;2.15;;;;;;;16.86;64.55;100527.69;4992083;28;20111;-80
2022/05/27 06:57:49;;;;;;;3.45;2.17;;;;;;;16.50;62.08;100525.81;5020040;28;20046;-80
2022/05/27 07:01:47;;;;;;;5.75;2.83;;;;;;;15.98;64.35;100540.69;5030394;28;20568;-81
2022/05/27 07:04:23;;;;;;;4.55;1.92;;;;;;;15.69;66.75;100533.97;5017379;28;20047;-81
2022/05/27 07:06:57;;;;;;;4.25;2.03;;;;;;;15.59;63.92;100533.47;5017929;28;20056;-82
2022/05/27 07:09:26;;;;;;;6.05;2.17;;;;;;;15.45;65.92;100546.50;5013121;28;20037;-83
2022/05/27 07:11:55;;;;;;;5.07;2.00;;;;;;;15.19;64.86;100539.59;4998490;28;20040;-81
2022/05/27 07:14:21;;;;;;;4.03;2.03;;;;;;;15.11;64.90;100545.22;5014483;28;20397;-81
2022/05/27 07:16:48;;;;;;;4.18;2.05;;;;;;;15.08;66.76;100549.81;5001604;28;20044;-80
2022/05/27 07:19:35;;;;;;;3.78;1.73;;;;;;;15.07;61.19;100540.13;5041152;28;20045;-81
2022/05/27 07:22:02;;;;;;;4.40;1.58;;;;;;;15.21;61.33;100538.59;5020498;28;20056;-82
2022/05/27 07:24:29;;;;;;;7.95;2.17;;;;;;;15.50;64.25;100544.50;5006779;28;20041;-81
2022/05/27 07:26:55;;;;;;;4.35;1.63;;;;;;;15.42;59.47;100542.16;5039289;28;20056;-79
2022/05/27 07:29:23;;;;;;;3.30;1.75;;;;;;;15.56;61.64;100546.91;5048765;28;20111;-78
2022/05/27 07:31:50;;;;;;;4.55;1.70;;;;;;;16.05;58.88;100550.09;5028710;28;20033;-79
2022/05/27 07:34:16;;;;;;;2.95;1.92;;;;;;;16.79;63.09;100540.47;5014921;28;20052;-79
2022/05/27 07:36:43;;;;;;;3.08;1.45;;;;;;;17.07;53.21;100542.69;5013370;28;20053;-79
2022/05/27 07:39:10;;;;;;;4.07;1.67;;;;;;;16.90;55.55;100547.97;5027580;28;20466;-79
2022/05/27 07:41:37;;;;;;;4.90;2.22;;;;;;;16.73;55.44;100547.88;5015829;28;20033;-78
2022/05/27 07:44:05;;;;;;;2.83;1.58;;;;;;;16.43;53.08;100559.03;5011307;28;20048;-79
2022/05/27 07:46:34;;;;;;;3.67;2.10;;;;;;;16.39;57.51;100541.44;5047652;28;20436;-80
2022/05/27 07:49:04;;;;;;;5.82;1.70;;;;;;;16.54;54.20;100545.19;5013751;28;20211;-79
2022/05/27 07:51:50;;;;;;;7.68;1.90;;;;;;;16.80;52.62;100544.00;5046726;28;20045;-78
2022/05/27 07:54:18;;;;;;;4.50;1.98;;;;;;;16.46;48.85;100537.56;5029193;28;20033;-79
2022/05/27 07:56:48;;;;;;;4.03;1.92;;;;;;;16.24;47.98;100553.69;4999307;28;20049;-79
2022/05/27 07:59:15;;;;;;;3.50;1.80;;;;;;;16.38;52.26;100539.72;5029828;28;20041;-79
2022/05/27 08:01:42;;;;;;;4.43;1.90;;;;;;;16.91;50.29;100551.50;5025961;28;20044;-78
2022/05/27 08:04:09;;;;;;;7.25;2.10;;;;;;;17.32;48.04;100553.00;5028611;28;21469;-80
2022/05/27 08:06:37;;;;;;;6.70;2.03;;;;;;;17.63;49.64;100551.44;5030466;28;20037;-80
2022/05/27 08:09:11;;;;;;;;;;;;;;;18.03;43.55;100544.91;4998081;28;20033;-79
2022/05/27 08:11:45;;;;;;;5.22;2.03;;;;;;;18.00;41.46;100539.72;5016219;28;19920;-79
2022/05/27 08:14:19;;;;;;;4.38;1.42;;;;;;;18.17;39.56;100545.03;5012749;28;20140;-79
2022/05/27 08:16:46;;;;;;;4.20;2.05;;;;;;;18.74;40.91;100544.63;5009403;28;20033;-79
2022/05/27 08:19:14;;;;;;;6.25;1.75;;;;;;;18.24;39.49;100559.81;5014591;28;20055;-79
2022/05/27 08:21:41;;;;;;;7.78;1.80;;;;;;;18.48;41.97;100538.88;5039875;28;20040;-79
2022/05/27 08:24:08;;;;;;;4.70;1.67;;;;;;;17.91;41.10;100543.75;5035791;28;20044;-79
2022/05/27 08:26:37;;;;;;;4.47;1.73;;;;;;;17.85;42.73;100548.56;5036136;28;20048;-79
2022/05/27 08:29:04;;;;;;;3.97;1.88;;;;;;;18.29;41.74;100554.19;5034987;28;20041;-78
2022/05/27 08:31:31;;;;;;;17.92;3.47;;;;;;;18.41;42.09;100560.69;5000908;28;21916;-79
2022/05/27 08:39:28;;;;;;;3.45;1.50;;;;;;;18.86;37.21;100554.66;5016429;28;20442;-77
2022/05/27 08:41:58;;;;;;;3.95;1.75;;;;;;;19.26;38.40;100549.69;5017030;28;20573;-78
2022/05/27 08:44:30;;;;;;;4.70;1.42;;;;;;;19.66;39.99;100581.22;5016712;28;20037;-80
2022/05/27 08:47:19;;;;;;;3.00;1.85;;;;;;;18.35;38.19;100539.66;5034031;28;20041;-81
2022/05/27 08:49:48;;;;;;;4.43;1.50;;;;;;;18.68;38.34;100537.81;5021455;28;20052;-80
2022/05/27 08:52:42;;;;;;;1.75;1.10;;;;;;;18.73;37.06;100549.09;5005989;28;20040;-81
2022/05/27 09:01:26;;;;;;;2.80;1.40;;;;;;;19.18;41.81;100539.44;5049119;28;20481;-80
2022/05/27 09:04:18;;;;;;;3.85;1.40;;;;;;;18.95;37.11;100546.09;5018249;28;20091;-80
2022/05/27 09:07:30;;;;;;;4.13;1.42;;;;;;;18.37;37.92;100554.66;4997672;28;20041;-84
2022/05/27 09:10:03;;;;;;;8.15;1.73;;;;;;;18.68;39.87;100545.84;5028581;28;20041;-80
2022/05/27 09:12:58;;;;;;;3.30;1.13;;;;;;;19.10;38.14;100547.91;5018459;28;20124;-79
2022/05/27 09:15:38;;;;;;;2.80;1.45;;;;;;;19.27;39.19;100552.28;5033470;28;20053;-79
2022/05/27 09:18:12;;;;;;;2.35;1.50;;;;;;;18.77;40.97;100556.03;5035237;28;20060;-80
2022/05/27 09:21:06;;;;;;;5.93;1.92;;;;;;;18.10;41.63;100558.81;5003970;28;20045;-80
2022/05/27 09:24:00;;;;;;;4.35;1.48;;;;;;;17.86;41.30;100558.28;4983194;28;20064;-79
2022/05/27 09:26:39;;;;;;;3.40;1.58;;;;;;;18.51;41.91;100560.13;5054207;28;20052;-80
2022/05/27 09:29:10;;;;;;;4.13;1.58;;;;;;;19.15;39.29;100560.16;5027596;28;20048;-79
2022/05/27 09:32:24;;;;;;;3.08;1.98;;;;;;;19.37;40.57;100558.81;5054802;28;20045;-80
2022/05/27 09:34:53;;;;;;;3.75;1.70;;;;;;;18.97;35.43;100554.03;5035688;28;20127;-79
2022/05/27 09:37:32;;;;;;;4.18;1.40;;;;;;;17.88;38.29;100559.06;5053045;28;20030;-80
2022/05/27 09:40:03;;;;;;;3.97;1.75;;;;;;;17.62;40.03;100568.41;5020599;28;20535;-80
2022/05/27 09:42:32;;;;;;;3.50;1.52;;;;;;;17.65;40.08;100560.22;5031334;28;20045;-79
2022/05/27 09:44:59;;;;;;;2.80;1.40;;;;;;;17.94;40.55;100564.09;5036918;28;20503;-80
2022/05/27 09:47:30;;;;;;;4.63;1.55;;;;;;;18.56;38.34;100559.84;5035019;28;20076;-80
2022/05/27 09:50:00;;;;;;;4.32;2.38;;;;;;;17.88;36.99;100572.44;5038096;28;20059;-81
2022/05/27 09:52:29;;;;;;;2.50;1.35;;;;;;;17.68;39.31;100568.09;5010255;28;20056;-79
2022/05/27 09:54:59;;;;;;;3.42;1.50;;;;;;;17.78;38.87;100571.19;5016717;28;20045;-80
2022/05/27 09:57:28;;;;;;;3.90;1.48;;;;;;;17.99;39.25;100567.38;5056784;28;20099;-79
2022/05/27 10:00:05;;;;;;;3.15;1.33;;;;;;;18.54;39.55;100556.41;5009311;28;20592;-79
2022/05/27 10:02:35;;;;;;;2.38;1.17;;;;;;;19.03;34.03;100546.53;5036070;28;20664;-79
2022/05/27 10:05:03;;;;;;;4.75;1.60;;;;;;;19.15;33.21;100560.16;5036609;28;20559;-79
2022/05/27 10:07:46;;;;;;;4.85;1.17;;;;;;;19.30;32.84;100549.41;5015462;28;20044;-79
2022/05/27 10:10:28;;;;;;;2.70;1.50;;;;;;;19.72;33.12;100544.31;5022159;28;20061;-81
2022/05/27 10:12:57;;;;;;;2.90;1.17;;;;;;;19.66;32.02;100558.94;4999469;28;20052;-80
2022/05/27 10:15:35;;;;;;;1.58;1.00;;;;;;;20.27;34.36;100565.94;5050108;28;20045;-80
2022/05/27 10:18:22;;;;;;;11.40;2.55;;;;;;;20.38;30.25;100559.91;5017321;28;20498;-80
2022/05/27 10:21:02;;;;;;;2.42;1.30;;;;;;;20.38;32.32;100563.44;5034700;28;20072;-80
2022/05/27 10:23:56;;;;;;;3.15;1.23;;;;;;;20.07;29.75;100551.06;5021286;28;20040;-80
2022/05/27 10:26:31;;;;;;;2.53;1.10;;;;;;;19.96;31.49;100556.22;5060174;28;20041;-80
2022/05/27 10:29:02;;;;;;;4.45;1.63;;;;;;;20.38;32.19;100541.97;5022151;28;20045;-79
2022/05/27 10:31:29;;;;;;;4.15;1.35;;;;;;;20.77;31.55;100546.66;5045248;28;20048;-80
2022/05/27 10:33:56;;;;;;;4.50;1.70;;;;;;;19.96;30.69;100553.56;5052695;28;20642;-80
2022/05/27 10:36:52;;;;;;;2.47;1.60;;;;;;;20.04;32.43;100545.91;5012087;28;20041;-79
2022/05/27 10:40:01;;;;;;;2.53;1.65;;;;;;;19.56;32.64;100539.88;5024035;28;20040;-80
2022/05/27 10:42:47;;;;;;;7.45;3.80;;;;;;;20.24;33.51;100550.88;4969064;28;20410;-80
2022/05/27 10:45:34;;;;;;;366.65;244.68;;;;;;;19.36;32.57;100548.19;5021285;28;20047;-79
2022/05/27 10:48:19;;;;;;;66.82;40.60;;;;;;;18.54;35.44;100540.34;5055425;28;20040;-79
2022/05/27 10:50:56;;;;;;;39.97;36.33;;;;;;;18.06;35.18;100535.84;5040402;28;20555;-79
2022/05/27 10:53:41;;;;;;;39.60;36.90;;;;;;;18.06;36.78;100539.38;5045016;28;20049;-80
2022/05/27 10:56:42;;;;;;;9.02;7.18;;;;;;;18.99;35.08;100530.69;5034515;28;20067;-81
2022/05/27 11:02:53;;;;;;;6.32;1.90;;;;;;;19.23;34.19;100529.28;5033654;28;20037;-80
2022/05/27 11:05:29;;;;;;;4.03;1.50;;;;;;;19.78;33.38;100526.03;5032773;28;20486;-80
2022/05/27 11:08:12;;;;;;;4.88;1.67;;;;;;;20.37;33.02;100509.88;5030341;28;20417;-80
2022/05/27 11:10:48;;;;;;;5.15;2.60;;;;;;;20.97;33.16;100512.28;5048369;28;20371;-79
2022/05/27 11:16:30;;;;;;;5.20;1.88;;;;;;;19.92;33.68;100504.59;5032620;28;20056;-79
2022/05/27 11:19:27;;;;;;;3.65;1.42;;;;;;;19.17;33.42;100497.53;5044913;28;20051;-79
2022/05/27 11:22:15;;;;;;;4.30;1.70;;;;;;;18.36;35.40;100507.47;5030775;28;20038;-79
2022/05/27 11:25:03;;;;;;;5.30;1.45;;;;;;;17.66;36.46;100511.22;5001520;28;20045;-80
2022/05/27 11:27:58;;;;;;;9.00;2.25;;;;;;;17.77;37.99;100527.56;5013664;28;21035;-79
2022/05/27 11:30:49;;;;;;;;;;;;;;;17.67;38.03;100523.63;5050635;28;20052;-80
2022/05/27 11:33:24;;;;;;;3.72;1.83;;;;;;;17.58;43.32;100514.28;5015673;28;19924;-79
2022/05/27 11:36:12;;;;;;;5.53;1.85;;;;;;;17.69;39.96;100516.38;5049755;28;20346;-80
2022/05/27 11:39:02;;;;;;;9.02;1.77;;;;;;;18.46;39.12;100511.34;5029213;28;20406;-80
2022/05/27 11:41:49;;;;;;;5.32;1.75;;;;;;;18.67;38.47;100503.97;5042859;28;20067;-80
2022/05/27 11:44:40;;;;;;;5.80;1.95;;;;;;;18.38;38.21;100484.16;5045254;28;20127;-80
2022/05/27 11:47:10;;;;;;;5.95;1.45;;;;;;;18.85;38.28;100480.66;5046809;28;20038;-80
2022/05/27 11:49:49;;;;;;;4.03;1.50;;;;;;;18.86;36.36;100486.88;5033515;28;20063;-80
2022/05/27 11:52:36;;;;;;;5.53;1.77;;;;;;;18.82;36.10;100491.50;5032659;28;20043;-81
2022/05/27 11:55:14;;;;;;;4.15;1.40;;;;;;;18.39;38.09;100499.25;5032950;28;20036;-82
2022/05/27 11:57:55;;;;;;;5.00;1.77;;;;;;;18.20;35.92;100498.53;5031971;28;20052;-81
2022/05/27 12:00:26;;;;;;;3.67;1.60;;;;;;;17.55;36.25;100502.88;5013468;28;20569;-81
2022/05/27 12:03:07;;;;;;;3.83;1.60;;;;;;;17.80;36.45;100498.00;5027587;28;20404;-80
2022/05/27 12:05:41;;;;;;;2.83;1.50;;;;;;;17.70;36.13;100511.00;5015220;28;20048;-81
2022/05/27 12:08:13;;;;;;;8.00;2.88;;;;;;;17.61;37.34;100494.56;5042730;28;20061;-80
2022/05/27 12:10:45;;;;;;;5.93;1.88;;;;;;;17.33;37.85;100501.31;5041158;28;20045;-80
2022/05/27 12:13:39;;;;;;;4.72;1.85;;;;;;;17.19;37.92;100505.63;5034548;28;20094;-80
2022/05/27 12:16:15;;;;;;;4.35;1.65;;;;;;;17.16;39.29;100520.88;5029298;28;20041;-81
2022/05/27 12:18:46;;;;;;;13.50;2.95;;;;;;;17.05;38.85;100520.50;5028480;28;20033;-80
2022/05/27 12:21:16;;;;;;;3.35;1.70;;;;;;;16.67;41.43;100549.03;5009838;28;20048;-81
2022/05/27 12:23:53;;;;;;;4.22;1.70;;;;;;;16.35;44.10;100545.19;5013877;28;20052;-80
2022/05/27 12:26:27;;;;;;;6.18;2.20;;;;;;;15.57;49.09;100543.31;5016297;28;20048;-79
2022/05/27 12:28:56;;;;;;;3.38;1.92;;;;;;;15.32;53.34;100543.50;5014442;28;20507;-81
2022/05/27 12:31:24;;;;;;;4.82;2.15;;;;;;;15.19;55.91;100537.81;5032873;28;20049;-80
2022/05/27 12:33:50;;;;;;;4.88;2.13;;;;;;;15.70;54.19;100531.22;5020937;28;20048;-80
2022/05/27 12:36:26;;;;;;;12.55;2.38;;;;;;;15.93;53.65;100532.00;4988543;28;20048;-80
2022/05/27 12:38:54;;;;;;;10.55;1.98;;;;;;;15.64;55.96;100527.97;5031485;28;20071;-81
2022/05/27 12:41:36;;;;;;;5.53;1.92;;;;;;;15.54;56.03;100522.13;5036425;28;20071;-80
2022/05/27 12:44:10;;;;;;;5.43;1.77;;;;;;;15.80;55.55;100521.03;5011680;28;20042;-80
2022/05/27 12:46:42;;;;;;;3.20;1.52;;;;;;;16.39;53.67;100529.91;5024329;28;20048;-80